D/T METAR WX W/DIR W/SPE G/SPE TEMP DEWP
19/03/19 20:50 EGBB 192050Z 26006KT 220V290 9999 BKN021 11/08 Q1028 W (260°) 6.9mph 11°C 8°C
19/03/19 20:20 EGBB 192020Z 26006KT 9999 OVC021 11/08 Q1028 W (260°) 6.9mph 11°C 8°C
19/03/19 19:50 EGBB 191950Z 27006KT 230V290 9999 BKN024 OVC040 11/07 Q1028 W (270°) 6.9mph 11°C 7°C
19/03/19 19:20 EGBB 191920Z 26007KT 9999 BKN026 11/07 Q1028 W (260°) 8.1mph 11°C 7°C
19/03/19 18:50 EGBB 191850Z 27007KT 9999 BKN028 12/07 Q1027 W (270°) 8.1mph 12°C 7°C
19/03/19 18:20 EGBB 191820Z 27008KT 9999 BKN031 12/06 Q1027 W (270°) 9.2mph 12°C 6°C
19/03/19 17:50 EGBB 191750Z 26007KT 230V290 9999 SCT027 BKN035 12/07 Q1027 W (260°) 8.1mph 12°C 7°C
19/03/19 17:20 EGBB 191720Z 23008KT 9999 FEW020 BKN028 12/07 Q1026 SW (230°) 9.2mph 12°C 7°C
19/03/19 16:50 EGBB 191650Z 25008KT 200V280 9999 BKN030 13/07 Q1026 WSW (250°) 9.2mph 13°C 7°C
19/03/19 16:20 EGBB 191620Z 24009KT 210V280 9999 SCT028 13/07 Q1026 WSW (240°) 10.4mph 13°C 7°C
19/03/19 15:50 EGBB 191550Z 23007KT 190V250 9999 FEW024 13/07 Q1025 SW (230°) 8.1mph 13°C 7°C
19/03/19 15:20 EGBB 191520Z 24007KT 200V280 9999 SCT024 BKN032 12/07 Q1026 WSW (240°) 8.1mph 12°C 7°C
19/03/19 14:50 EGBB 191450Z 26008KT 9999 SCT024 BKN030 12/07 Q1026 W (260°) 9.2mph 12°C 7°C
19/03/19 14:20 EGBB 191420Z 24006KT 180V290 9999 SCT025 BKN036 12/08 Q1026 WSW (240°) 6.9mph 12°C 8°C
19/03/19 13:50 EGBB 191350Z 22005KT 190V250 9999 SCT021 BKN025 12/07 Q1026 SW (220°) 5.8mph 12°C 7°C
19/03/19 13:20 EGBB 191320Z 22005KT 190V260 9999 SCT021 BKN032 12/07 Q1026 SW (220°) 5.8mph 12°C 7°C
19/03/19 12:50 EGBB 191250Z 25006KT 210V290 9999 SCT022 BKN030 12/07 Q1026 WSW (250°) 6.9mph 12°C 7°C
19/03/19 12:20 EGBB 191220Z 27008KT 9999 BKN025 11/06 Q1027 W (270°) 9.2mph 11°C 6°C
19/03/19 11:50 EGBB 191150Z 27007KT 230V310 9999 SCT020 BKN030 11/07 Q1026 W (270°) 8.1mph 11°C 7°C
19/03/19 11:20 EGBB 191120Z 25005KT 180V300 9999 SCT016 BKN031 11/07 Q1026 WSW (250°) 5.8mph 11°C 7°C
19/03/19 10:50 EGBB 191050Z 26006KT 9999 SCT014 BKN035 11/08 Q1026 W (260°) 6.9mph 11°C 8°C
19/03/19 10:20 EGBB 191020Z 23006KT 190V260 9999 SCT013 BKN034 10/08 Q1026 SW (230°) 6.9mph 10°C 8°C
19/03/19 09:50 EGBB 190950Z 24006KT 200V280 9999 SCT013 BKN030 10/08 Q1026 WSW (240°) 6.9mph 10°C 8°C
19/03/19 09:20 EGBB 190920Z 22005KT 180V280 9999 SCT015 BKN023 10/07 Q1026 SW (220°) 5.8mph 10°C 7°C
19/03/19 08:50 EGBB 190850Z 26005KT 9999 FEW022 SCT030 10/07 Q1026 W (260°) 5.8mph 10°C 7°C
19/03/19 08:20 EGBB 190820Z 24005KT 210V270 9999 SCT025 09/07 Q1026 WSW (240°) 5.8mph 9°C 7°C
19/03/19 07:50 EGBB 190750Z 19004KT 170V240 9999 FEW021 08/07 Q1025 S (190°) 4.6mph 8°C 7°C
19/03/19 07:20 EGBB 190720Z 14005KT 9999 SCT021 07/06 Q1025 SE (140°) 5.8mph 7°C 6°C
19/03/19 06:50 EGBB 190650Z VRB02KT 9999 SCT020 07/06 Q1025 N (0°) 2.3mph 7°C 6°C
19/03/19 06:20 EGBB 190620Z 25002KT 9999 SCT022 07/06 Q1025 WSW (250°) 2.3mph 7°C 6°C
19/03/19 05:50 EGBB 190550Z VRB01KT 9999 SCT024 07/06 Q1025 N (0°) 1.2mph 7°C 6°C
19/03/19 05:20 EGBB 190520Z 26004KT 9999 BKN024 07/06 Q1024 W (260°) 4.6mph 7°C 6°C
19/03/19 04:50 EGBB 190450Z 25003KT 9999 BKN028 07/06 Q1024 WSW (250°) 3.5mph 7°C 6°C
19/03/19 04:20 EGBB 190420Z 23003KT 9999 FEW016 BKN029 07/06 Q1024 SW (230°) 3.5mph 7°C 6°C
19/03/19 03:50 EGBB 190350Z 25003KT 9999 SCT017 BKN032 07/06 Q1024 WSW (250°) 3.5mph 7°C 6°C
19/03/19 03:20 EGBB 190320Z 25005KT 9999 BKN033 07/06 Q1024 WSW (250°) 5.8mph 7°C 6°C
19/03/19 02:50 EGBB 190250Z 26004KT 9999 BKN030 08/06 Q1024 W (260°) 4.6mph 8°C 6°C
19/03/19 02:20 EGBB 190220Z 25004KT 9999 BKN034 08/06 Q1024 WSW (250°) 4.6mph 8°C 6°C
19/03/19 01:50 EGBB 190150Z 26005KT 9999 FEW018 BKN034 08/06 Q1024 W (260°) 5.8mph 8°C 6°C
19/03/19 01:20 EGBB 190120Z 25004KT 9999 BKN032 08/06 Q1024 WSW (250°) 4.6mph 8°C 6°C
19/03/19 00:50 EGBB 190050Z 25004KT 9999 SCT021 BKN027 OVC032 08/06 Q1023 WSW (250°) 4.6mph 8°C 6°C
18/03/19 23:50 EGBB 182350Z 26005KT 9999 SCT015 BKN026 OVC032 08/06 Q1023 W (260°) 5.8mph 8°C 6°C
18/03/19 23:20 EGBB 182320Z 25004KT 220V290 9999 FEW015 BKN027 OVC033 08/06 Q1023 WSW (250°) 4.6mph 8°C 6°C
18/03/19 22:50 EGBB 182250Z 23002KT 9999 BKN033 08/06 Q1023 SW (230°) 2.3mph 8°C 6°C
18/03/19 22:20 EGBB 182220Z 25004KT 9999 FEW026 BKN036 08/05 Q1023 WSW (250°) 4.6mph 8°C 5°C
18/03/19 21:50 EGBB 182150Z 26004KT 9999 BKN025 08/05 Q1023 W (260°) 4.6mph 8°C 5°C
18/03/19 21:20 EGBB 182120Z 26004KT 9999 BKN030 08/05 Q1023 W (260°) 4.6mph 8°C 5°C
18/03/19 20:50 EGBB 182050Z 26004KT 9999 SCT032 08/05 Q1023 W (260°) 4.6mph 8°C 5°C
18/03/19 20:20 EGBB 182020Z 26004KT 9999 SCT031 08/06 Q1022 W (260°) 4.6mph 8°C 6°C
18/03/19 19:50 EGBB 181950Z VRB03KT 9999 SCT035 08/06 Q1022 N (0°) 3.5mph 8°C 6°C
18/03/19 19:20 EGBB 181920Z VRB03KT 9999 BKN037 08/06 Q1022 RERA N (0°) 3.5mph 8°C 6°C
18/03/19 18:50 EGBB 181850Z 26004KT 230V310 9999 -RA BKN036 08/05 Q1022 -RA W (260°) 4.6mph 8°C 5°C
18/03/19 18:20 EGBB 181820Z 26005KT 240V300 9999 FEW023 BKN036 09/06 Q1021 W (260°) 5.8mph 9°C 6°C
18/03/19 17:50 EGBB 181750Z 25005KT 9999 SCT036 BKN042 09/05 Q1021 WSW (250°) 5.8mph 9°C 5°C
18/03/19 17:20 EGBB 181720Z VRB03KT 9999 FEW018 SCT023 BKN042 09/06 Q1021 N (0°) 3.5mph 9°C 6°C
18/03/19 16:50 EGBB 181650Z 24004KT 190V280 9999 SCT017 BKN030 09/06 Q1021 WSW (240°) 4.6mph 9°C 6°C
18/03/19 16:20 EGBB 181620Z 25004KT 210V290 9999 VCSH SCT020 SCT040 09/06 Q1021 RESHRA VCSH WSW (250°) 4.6mph 9°C 6°C
18/03/19 15:50 EGBB 181550Z VRB03KT 9999 -RA SCT021 BKN033 08/06 Q1020 RERA -RA N (0°) 3.5mph 8°C 6°C
18/03/19 15:20 EGBB 181520Z 27005KT 220V330 8000 RA BKN020 BKN036 08/05 Q1020 RA W (270°) 5.8mph 8°C 5°C
18/03/19 14:50 EGBB 181450Z 26006KT 9999 -RA SCT024 BKN032 09/04 Q1020 -RA W (260°) 6.9mph 9°C 4°C
18/03/19 14:20 EGBB 181420Z 26006KT 230V300 9999 SCT025 BKN032 09/04 Q1020 W (260°) 6.9mph 9°C 4°C
18/03/19 13:50 EGBB 181350Z 24006KT 200V280 9999 BKN027 09/03 Q1020 WSW (240°) 6.9mph 9°C 3°C
18/03/19 13:20 EGBB 181320Z 26006KT 220V300 9999 BKN027 08/03 Q1020 W (260°) 6.9mph 8°C 3°C
18/03/19 12:50 EGBB 181250Z 27005KT 210V310 9999 BKN026 09/03 Q1020 W (270°) 5.8mph 9°C 3°C
18/03/19 12:20 EGBB 181220Z 26008KT 9999 BKN026 08/03 Q1020 W (260°) 9.2mph 8°C 3°C
18/03/19 11:50 EGBB 181150Z 27006KT 240V310 9999 BKN028 09/02 Q1020 W (270°) 6.9mph 9°C 2°C
18/03/19 11:20 EGBB 181120Z 31008KT 9999 SCT027 08/02 Q1020 NW (310°) 9.2mph 8°C 2°C
18/03/19 10:50 EGBB 181050Z 28008KT 230V310 9999 SCT023 SCT047 08/03 Q1020 W (280°) 9.2mph 8°C 3°C
18/03/19 10:20 EGBB 181020Z 28007KT 250V320 9999 SCT022 08/03 Q1020 W (280°) 8.1mph 8°C 3°C
18/03/19 09:50 EGBB 180950Z 30009KT 9999 SCT024 SCT030 08/03 Q1020 WNW (300°) 10.4mph 8°C 3°C
18/03/19 09:20 EGBB 180920Z 30008KT 270V330 9999 SCT025 07/03 Q1020 WNW (300°) 9.2mph 7°C 3°C
18/03/19 08:50 EGBB 180850Z 28006KT 9999 FEW030 07/03 Q1019 W (280°) 6.9mph 7°C 3°C
18/03/19 08:20 EGBB 180820Z 30004KT 260V320 9999 FEW025 06/03 Q1019 WNW (300°) 4.6mph 6°C 3°C
18/03/19 07:50 EGBB 180750Z VRB02KT 9999 FEW026 06/03 Q1019 N (0°) 2.3mph 6°C 3°C
18/03/19 07:20 EGBB 180720Z VRB02KT 9999 FEW028 05/02 Q1018 N (0°) 2.3mph 5°C 2°C
18/03/19 06:50 EGBB 180650Z VRB03KT 9999 FEW020 05/02 Q1018 N (0°) 3.5mph 5°C 2°C
18/03/19 06:20 EGBB 180620Z 26005KT 210V290 9999 FEW020 05/02 Q1018 W (260°) 5.8mph 5°C 2°C
18/03/19 05:50 EGBB 180550Z 27005KT 9999 FEW015 05/02 Q1018 W (270°) 5.8mph 5°C 2°C
18/03/19 04:50 EGBB 180450Z 29005KT 9999 FEW037 05/02 Q1017 WNW (290°) 5.8mph 5°C 2°C
18/03/19 03:50 EGBB 180350Z 30007KT CAVOK 05/01 Q1017 WNW (300°) 8.1mph 5°C 1°C
18/03/19 03:20 EGBB 180320Z 30010KT CAVOK 06/02 Q1016 WNW (300°) 11.5mph 6°C 2°C
18/03/19 02:50 EGBB 180250Z AUTO 29008KT 9999 NCD 05/02 Q1016 WNW (290°) 9.2mph 5°C 2°C
18/03/19 02:20 EGBB 180220Z AUTO 30009KT 9999 NCD 06/02 Q1016 WNW (300°) 10.4mph 6°C 2°C
18/03/19 01:50 EGBB 180150Z AUTO 30006KT 9999 FEW027/// 06/02 Q1016 WNW (300°) 6.9mph 6°C 2°C
18/03/19 01:20 EGBB 180120Z 30009KT 9999 FEW030 06/02 Q1016 WNW (300°) 10.4mph 6°C 2°C
18/03/19 00:50 EGBB 180050Z 30008KT 9999 FEW024 SCT041 06/02 Q1015 WNW (300°) 9.2mph 6°C 2°C
18/03/19 00:20 EGBB 180020Z 30008KT 9999 FEW025 SCT030 06/02 Q1015 WNW (300°) 9.2mph 6°C 2°C
17/03/19 23:20 EGBB 172320Z 32010KT 9999 BKN022 06/03 Q1014 NW (320°) 11.5mph 6°C 3°C
17/03/19 22:50 EGBB 172250Z 32012KT 9999 BKN022 07/03 Q1014 NW (320°) 13.8mph 7°C 3°C
17/03/19 22:20 EGBB 172220Z 32015KT 9999 BKN022 07/03 Q1013 NW (320°) 17.3mph 7°C 3°C
17/03/19 21:50 EGBB 172150Z 32015KT 9999 SCT023 07/03 Q1013 NW (320°) 17.3mph 7°C 3°C
17/03/19 21:20 EGBB 172120Z 31015KT 9999 BKN023 07/03 Q1012 NW (310°) 17.3mph 7°C 3°C
17/03/19 20:50 EGBB 172050Z 30011KT 9999 SCT022 07/03 Q1012 WNW (300°) 12.7mph 7°C 3°C
17/03/19 20:20 EGBB 172020Z 30008KT 9999 VCSH SCT021 BKN033 07/04 Q1011 VCSH WNW (300°) 9.2mph 7°C 4°C
17/03/19 19:50 EGBB 171950Z 30007KT 9999 -RA SCT021 07/03 Q1011 -RA WNW (300°) 8.1mph 7°C 3°C
17/03/19 19:20 EGBB 171920Z 28006KT 250V320 9999 SCT026 SCT035 07/03 Q1010 W (280°) 6.9mph 7°C 3°C
17/03/19 18:50 EGBB 171850Z 27006KT 9999 SCT025 BKN032 06/03 Q1009 W (270°) 6.9mph 6°C 3°C
17/03/19 18:20 EGBB 171820Z 30010KT 9999 FEW011 SCT022 BKN030 07/03 Q1009 WNW (300°) 11.5mph 7°C 3°C
17/03/19 17:50 EGBB 171750Z 29007KT 9999 -SHRA SCT024 BKN028 07/03 Q1008 -SHRA WNW (290°) 8.1mph 7°C 3°C
17/03/19 17:20 EGBB 171720Z 30010KT 250V320 9999 BKN032 07/01 Q1008 WNW (300°) 11.5mph 7°C 1°C
17/03/19 16:50 EGBB 171650Z 28012KT 9999 BKN030 07/02 Q1007 W (280°) 13.8mph 7°C 2°C
17/03/19 16:20 EGBB 171620Z 28008KT 230V310 9999 BKN030 08/02 Q1007 W (280°) 9.2mph 8°C 2°C
17/03/19 15:50 EGBB 171550Z 28010KT 230V310 9999 FEW032CB BKN034 08/01 Q1006 W (280°) 11.5mph 8°C 1°C
17/03/19 15:20 EGBB 171520Z 29013G23KT 260V320 9999 VCSH FEW032CB SCT035 08/00 Q1006 VCSH WNW (290°) 15.0mph 26.5mph 8°C 0°C
17/03/19 14:50 EGBB 171450Z 28015G27KT 9999 VCSH SCT032CB BKN040 07/01 Q1005 VCSH W (280°) 17.3mph 31.1mph 7°C 1°C
17/03/19 14:20 EGBB 171420Z 28013KT 9999 FEW021CB SCT044 07/02 Q1005 W (280°) 15.0mph 7°C 2°C
17/03/19 13:50 EGBB 171350Z 29013KT 9999 VCSH SCT021CB BKN033 06/02 Q1005 VCSH WNW (290°) 15.0mph 6°C 2°C
17/03/19 13:20 EGBB 171320Z 27007KT 9999 FEW012 FEW022CB SCT025 04/03 Q1005 W (270°) 8.1mph 4°C 3°C
17/03/19 12:50 EGBB 171250Z 28014KT 9999 2000E -SHRA SCT012CB BKN022 03/01 Q1005 RESHSN RESHRA -SHRA SHRA W (280°) 16.1mph 3°C 1°C
17/03/19 12:20 EGBB 171220Z 28012KT 210V320 9999 FEW026CB SCT032 07/02 Q1005 W (280°) 13.8mph 7°C 2°C
17/03/19 11:50 EGBB 171150Z 28014G26KT 9999 -SHRA SCT028CB BKN034 04/01 Q1005 RESHRA -SHRA W (280°) 16.1mph 29.9mph 4°C 1°C
17/03/19 11:20 EGBB 171120Z 27012KT 240V300 9999 SCT030 BKN037 07/M00 Q1004 W (270°) 13.8mph 7°C 0°C
17/03/19 10:50 EGBB 171050Z 27014KT 240V300 9999 BKN037 07/M01 Q1004 W (270°) 16.1mph 7°C -1°C
17/03/19 10:20 EGBB 171020Z 27010KT 240V310 9999 SCT029 06/M00 Q1003 W (270°) 11.5mph 6°C 0°C
17/03/19 09:50 EGBB 170950Z 29011KT 9999 SCT030 06/M00 Q1003 WNW (290°) 12.7mph 6°C 0°C
17/03/19 09:20 EGBB 170920Z 28010KT 240V310 9999 SCT030 06/00 Q1003 W (280°) 11.5mph 6°C 0°C
17/03/19 08:50 EGBB 170850Z 27011KT 9999 SCT024 05/01 Q1002 W (270°) 12.7mph 5°C 1°C
17/03/19 08:20 EGBB 170820Z 26009KT 9999 FEW022 05/01 Q1002 W (260°) 10.4mph 5°C 1°C
17/03/19 07:50 EGBB 170750Z 26009KT 9999 FEW020CB 04/01 Q1001 W (260°) 10.4mph 4°C 1°C
17/03/19 07:20 EGBB 170720Z 25006KT 180V300 9999 FEW020CB 04/01 Q1001 WSW (250°) 6.9mph 4°C 1°C
17/03/19 06:50 EGBB 170650Z 26008KT 9999 FEW020CB 03/01 Q1000 W (260°) 9.2mph 3°C 1°C
17/03/19 06:20 EGBB 170620Z 24006KT 210V270 CAVOK 03/01 Q1000 WSW (240°) 6.9mph 3°C 1°C
17/03/19 05:50 EGBB 170550Z VRB03KT CAVOK 02/01 Q1000 N (0°) 3.5mph 2°C 1°C
17/03/19 05:20 EGBB 170520Z 23004KT 190V260 9999 FEW028 03/01 Q0999 SW (230°) 4.6mph 3°C 1°C
17/03/19 04:50 EGBB 170450Z 26006KT 9999 FEW024 04/01 Q0999 W (260°) 6.9mph 4°C 1°C
17/03/19 04:20 EGBB 170420Z 27007KT 240V300 9999 FEW021 04/02 Q0998 W (270°) 8.1mph 4°C 2°C
17/03/19 03:50 EGBB 170350Z 27008KT 9999 FEW019 SCT033 04/02 Q0998 W (270°) 9.2mph 4°C 2°C
17/03/19 03:20 EGBB 170320Z 27007KT 9999 FEW020 BKN032 BKN037 04/02 Q0997 W (270°) 8.1mph 4°C 2°C
17/03/19 02:50 EGBB 170250Z 27008KT 9999 FEW018 SCT023 05/02 Q0997 W (270°) 9.2mph 5°C 2°C
17/03/19 02:20 EGBB 170220Z 27008KT 9999 BKN025 BKN030 05/03 Q0997 W (270°) 9.2mph 5°C 3°C
17/03/19 01:50 EGBB 170150Z 26010KT CAVOK 05/02 Q0996 W (260°) 11.5mph 5°C 2°C
17/03/19 01:20 EGBB 170120Z 26009KT 9999 SCT032 BKN042 05/02 Q0996 W (260°) 10.4mph 5°C 2°C
17/03/19 00:50 EGBB 170050Z 27009KT 9999 BKN031 05/03 Q0996 W (270°) 10.4mph 5°C 3°C
17/03/19 00:20 EGBB 170020Z 27007KT 9999 BKN024 06/03 Q0995 W (270°) 8.1mph 6°C 3°C
16/03/19 23:50 EGBB 162350Z 26006KT 9999 BKN024 BKN030 OVC043 06/04 Q0995 W (260°) 6.9mph 6°C 4°C
16/03/19 23:20 EGBB 162320Z 26007KT 9999 BKN037 06/04 Q0995 W (260°) 8.1mph 6°C 4°C
16/03/19 22:50 EGBB 162250Z 26006KT 9999 BKN036 06/04 Q0994 W (260°) 6.9mph 6°C 4°C
16/03/19 22:20 EGBB 162220Z 26008KT CAVOK 06/04 Q0994 W (260°) 9.2mph 6°C 4°C
16/03/19 21:50 EGBB 162150Z 28008KT CAVOK 06/04 Q0994 W (280°) 9.2mph 6°C 4°C
16/03/19 21:20 EGBB 162120Z 27008KT 9999 FEW012 07/04 Q0994 W (270°) 9.2mph 7°C 4°C
16/03/19 20:50 EGBB 162050Z 28007KT 9999 SCT012 07/04 Q0993 RERA W (280°) 8.1mph 7°C 4°C
16/03/19 20:20 EGBB 162020Z 29014KT 9000 RA SCT011 BKN015 BKN023 07/05 Q0993 RA WNW (290°) 16.1mph 7°C 5°C
16/03/19 19:50 EGBB 161950Z 27012KT 240V320 6000 RA SCT012 BKN016 OVC023 09/07 Q0992 RA W (270°) 13.8mph 9°C 7°C
16/03/19 19:20 EGBB 161920Z 26010KT 220V280 8000 RA FEW018 SCT024 BKN035 09/07 Q0992 RA W (260°) 11.5mph 9°C 7°C